createdAt,value
2023-02-05T00:00:49.963Z,96988.78
2023-02-05T00:03:16.436Z,97029.88
2023-02-05T00:05:42.859Z,97006.97
2023-02-05T00:08:10.517Z,97003.63
2023-02-05T00:10:37.374Z,97016.41
2023-02-05T00:13:03.867Z,96991.63
2023-02-05T00:15:30.401Z,96999.50
2023-02-05T00:17:56.906Z,96956.41
2023-02-05T00:20:23.511Z,96988.41
2023-02-05T00:22:49.973Z,96969.28
2023-02-05T00:25:16.814Z,96963.47
2023-02-05T00:27:43.297Z,97006.72
2023-02-05T00:30:10.771Z,97022.09
2023-02-05T00:32:37.441Z,97017.31
2023-02-05T00:35:04.362Z,97067.56
2023-02-05T00:37:30.851Z,97059.78
2023-02-05T00:39:57.425Z,97105.72
2023-02-05T00:42:23.940Z,97083.78
2023-02-05T00:44:50.377Z,97104.28
2023-02-05T00:47:16.883Z,97110.06
2023-02-05T00:49:43.373Z,97111.59
2023-02-05T00:52:09.881Z,97121.00
2023-02-05T00:54:36.461Z,97106.97
2023-02-05T00:57:03.087Z,97107.47
2023-02-05T00:59:29.598Z,97078.69
2023-02-05T01:01:56.021Z,97061.78
2023-02-05T01:04:22.602Z,97010.06
2023-02-05T01:06:49.073Z,97005.28
2023-02-05T01:09:15.645Z,97060.56
2023-02-05T01:11:42.087Z,97000.47
2023-02-05T01:14:08.606Z,97035.34
2023-02-05T01:16:35.076Z,97019.50
2023-02-05T01:19:01.849Z,97004.19
2023-02-05T01:21:28.313Z,97003.41
2023-02-05T01:23:54.880Z,96974.91
2023-02-05T01:26:21.470Z,96991.56
2023-02-05T01:28:48.311Z,96939.13
2023-02-05T01:31:15.003Z,96953.88
2023-02-05T01:33:41.638Z,96950.38
2023-02-05T01:36:08.555Z,96963.78
2023-02-05T01:38:35.042Z,96969.97
2023-02-05T01:41:01.599Z,96979.75
2023-02-05T01:43:28.097Z,97005.66
2023-02-05T01:45:57.686Z,97026.69
2023-02-05T01:48:30.142Z,97027.16
2023-02-05T01:51:04.054Z,97091.59
2023-02-05T01:53:34.075Z,97090.34
2023-02-05T01:56:06.250Z,97147.81
2023-02-05T01:58:38.115Z,97215.31
2023-02-05T02:01:04.834Z,97250.34
2023-02-05T02:03:31.958Z,97255.03
2023-02-05T02:05:59.028Z,97312.78
2023-02-05T02:08:25.742Z,97356.13
2023-02-05T02:10:55.552Z,97393.97
2023-02-05T02:13:23.659Z,97444.56
2023-02-05T02:15:50.675Z,97511.75
2023-02-05T02:18:19.600Z,97526.00
2023-02-05T02:20:52.980Z,97559.22
2023-02-05T02:23:39.170Z,97594.72
2023-02-05T02:26:53.459Z,97645.81
2023-02-05T02:29:34.776Z,97702.84
2023-02-05T02:32:41.739Z,97749.78
2023-02-05T02:35:21.001Z,97800.13
2023-02-05T02:37:56.029Z,97861.25
2023-02-05T02:40:31.948Z,97858.13
2023-02-05T02:43:07.995Z,97933.81
2023-02-05T02:45:37.019Z,97988.56
2023-02-05T02:48:06.544Z,98014.19
2023-02-05T02:50:49.882Z,97905.16
2023-02-05T02:53:24.006Z,98093.50
2023-02-05T02:55:53.033Z,98097.47
2023-02-05T02:58:40.205Z,98145.19
2023-02-05T03:01:09.434Z,98170.31
2023-02-05T03:03:42.289Z,98196.84
2023-02-05T03:06:15.141Z,98208.84
2023-02-05T03:08:59.834Z,98207.16
2023-02-05T03:11:26.794Z,98282.31
2023-02-05T03:13:55.482Z,98285.00
2023-02-05T03:16:22.761Z,98295.59
2023-02-05T03:18:49.659Z,98316.88
2023-02-05T03:21:21.434Z,98351.47
2023-02-05T03:23:48.934Z,98333.16
2023-02-05T03:26:27.084Z,98318.88
2023-02-05T03:28:54.953Z,98353.19
2023-02-05T03:31:40.572Z,98416.16
2023-02-05T03:34:19.042Z,98415.47
2023-02-05T03:36:48.237Z,98438.59
2023-02-05T03:39:35.967Z,98448.94
2023-02-05T03:42:26.271Z,98478.41
2023-02-05T03:45:04.648Z,98500.63
2023-02-05T03:47:51.951Z,98507.78
2023-02-05T03:50:18.357Z,98554.28
2023-02-05T03:52:55.051Z,98574.56
2023-02-05T03:55:32.054Z,98556.81
2023-02-05T03:58:14.334Z,98550.16
2023-02-05T04:00:42.536Z,98581.72
2023-02-05T04:03:09.258Z,98632.63
2023-02-05T04:05:36.069Z,98654.63
2023-02-05T04:08:02.769Z,98683.13
2023-02-05T04:10:29.357Z,98694.69
2023-02-05T04:12:55.858Z,98705.41
2023-02-05T04:15:22.472Z,98739.50
2023-02-05T04:17:49.162Z,98736.78
2023-02-05T04:20:15.667Z,98763.16
2023-02-05T04:22:42.436Z,98784.47
2023-02-05T04:25:09.071Z,98793.03
2023-02-05T04:27:35.516Z,98794.50
2023-02-05T04:30:02.103Z,98743.13
2023-02-05T04:32:28.655Z,98739.41
2023-02-05T04:34:55.200Z,98782.56
2023-02-05T04:37:21.668Z,98741.78
2023-02-05T04:39:48.126Z,98689.84
2023-02-05T04:42:14.661Z,98720.81
2023-02-05T04:44:41.173Z,98720.13
2023-02-05T04:47:07.709Z,98679.66
2023-02-05T04:49:34.372Z,98673.34
2023-02-05T04:52:01.099Z,98577.00
2023-02-05T04:54:27.669Z,98519.22
2023-02-05T04:56:54.597Z,98570.44
2023-02-05T04:59:21.048Z,98523.22
2023-02-05T05:01:47.601Z,98523.78
2023-02-05T05:04:14.548Z,98466.22
2023-02-05T05:06:41.113Z,98501.56
2023-02-05T05:09:07.611Z,98446.50
2023-02-05T05:11:34.088Z,98477.94
2023-02-05T05:14:00.926Z,98402.59
2023-02-05T05:16:27.398Z,98355.06
2023-02-05T05:18:53.922Z,98346.13
2023-02-05T05:21:20.517Z,98310.13
2023-02-05T05:23:47.432Z,98244.66
2023-02-05T05:26:14.627Z,98217.09
2023-02-05T05:28:41.296Z,98184.44
2023-02-05T05:31:09.928Z,98172.97
2023-02-05T05:33:37.298Z,98109.06
2023-02-05T05:36:04.652Z,98095.66
2023-02-05T05:38:31.149Z,98095.03
2023-02-05T05:40:57.769Z,98075.56
2023-02-05T05:43:24.306Z,98055.91
2023-02-05T05:45:52.607Z,98033.25
2023-02-05T05:48:19.084Z,98036.41
2023-02-05T05:50:45.496Z,98033.56
2023-02-05T05:53:12.039Z,98033.78
2023-02-05T05:55:39.001Z,98030.91
2023-02-05T05:58:07.039Z,98033.72
2023-02-05T06:00:33.862Z,98006.47
2023-02-05T06:03:00.372Z,98017.13
2023-02-05T06:05:27.070Z,98048.31
2023-02-05T06:07:54.064Z,98088.97
2023-02-05T06:10:20.643Z,98135.31
2023-02-05T06:12:47.386Z,98162.34
2023-02-05T06:15:17.565Z,98176.88
2023-02-05T06:17:47.220Z,98223.69
2023-02-05T06:20:15.220Z,98265.56
2023-02-05T06:22:41.693Z,98308.09
2023-02-05T06:25:08.726Z,98376.50
2023-02-05T06:27:35.401Z,98459.28
2023-02-05T06:30:02.705Z,98514.09
2023-02-05T06:32:29.438Z,98526.88
2023-02-05T06:34:55.978Z,98665.72
2023-02-05T06:37:23.602Z,98673.25
2023-02-05T06:39:55.298Z,98787.75
2023-02-05T06:42:22.978Z,98859.88
2023-02-05T06:44:49.453Z,98926.78
2023-02-05T06:47:15.910Z,98994.88
2023-02-05T06:49:42.586Z,99046.47
2023-02-05T06:52:09.095Z,99129.38
2023-02-05T06:54:35.763Z,99212.97
2023-02-05T06:57:02.211Z,99194.66
2023-02-05T06:59:28.823Z,99257.94
2023-02-05T07:01:55.591Z,99328.03
2023-02-05T07:04:25.445Z,99402.28
2023-02-05T07:06:54.673Z,99401.19
2023-02-05T07:09:24.491Z,99515.41
2023-02-05T07:11:51.800Z,99553.44
2023-02-05T07:14:18.299Z,99625.69
2023-02-05T07:16:45.832Z,99668.16
2023-02-05T07:19:16.265Z,99713.56
2023-02-05T07:21:44.046Z,99772.91
2023-02-05T07:24:10.714Z,99805.19
2023-02-05T07:26:37.214Z,99844.22
2023-02-05T07:29:04.118Z,99871.75
2023-02-05T07:31:30.709Z,99915.19
2023-02-05T07:33:57.541Z,99964.22
2023-02-05T07:36:24.054Z,100008.44
2023-02-05T07:38:50.539Z,100000.84
2023-02-05T07:41:18.106Z,100090.13
2023-02-05T07:43:45.430Z,100154.56
2023-02-05T07:46:17.202Z,100183.88
2023-02-05T07:48:46.719Z,100245.47
2023-02-05T07:51:20.538Z,100238.41
2023-02-05T07:53:47.458Z,100355.81
2023-02-05T07:56:15.426Z,100383.59
2023-02-05T07:58:42.619Z,100443.53
2023-02-05T08:01:09.235Z,100492.16
2023-02-05T08:03:36.171Z,100523.16
2023-02-05T08:06:07.570Z,100567.03
2023-02-05T08:08:34.268Z,100518.16
2023-02-05T08:11:04.708Z,100608.69
2023-02-05T08:13:32.194Z,100385.88
2023-02-05T08:15:59.503Z,100327.47
2023-02-05T08:18:26.030Z,100294.75
2023-02-05T08:20:53.852Z,100303.75
2023-02-05T08:23:20.795Z,100371.06
2023-02-05T08:25:50.518Z,100299.28
2023-02-05T08:28:17.081Z,100440.34
2023-02-05T08:30:43.692Z,100438.81
2023-02-05T08:33:10.194Z,100448.81
2023-02-05T08:35:37.188Z,100464.72
2023-02-05T08:38:03.817Z,100438.50
2023-02-05T08:40:30.492Z,100517.94
2023-02-05T08:42:57.066Z,100549.75
2023-02-05T08:45:24.790Z,100540.09
2023-02-05T08:47:51.330Z,100512.03
2023-02-05T08:50:18.898Z,100576.69
2023-02-05T08:52:46.465Z,100585.22
2023-02-05T08:55:17.183Z,100625.72
2023-02-05T08:57:46.278Z,100661.78
2023-02-05T09:00:14.463Z,100678.59
2023-02-05T09:02:43.166Z,100699.91
2023-02-05T09:05:10.591Z,100681.75
2023-02-05T09:07:40.242Z,100682.72
2023-02-05T09:10:12.412Z,100621.00
2023-02-05T09:12:39.708Z,100657.59
2023-02-05T09:15:07.771Z,100679.94
2023-02-05T09:17:34.209Z,100655.97
2023-02-05T09:20:00.925Z,100636.84
2023-02-05T09:22:27.448Z,100622.41
2023-02-05T09:24:54.025Z,100630.63
2023-02-05T09:27:20.553Z,100643.69
2023-02-05T09:29:47.491Z,100678.03
2023-02-05T09:32:14.260Z,100727.25
2023-02-05T09:34:40.862Z,100765.78
2023-02-05T09:37:07.521Z,100808.69
2023-02-05T09:40:18.545Z,100857.56
2023-02-05T09:42:40.272Z,100871.59
2023-02-05T09:45:16.865Z,100941.75
2023-02-05T09:48:01.878Z,100956.72
2023-02-05T09:50:29.206Z,100983.91
2023-02-05T09:53:04.370Z,101004.59
2023-02-05T09:55:35.987Z,101010.72
2023-02-05T09:58:30.832Z,101102.03
2023-02-05T10:01:04.958Z,101133.03
2023-02-05T10:03:48.697Z,101174.34
2023-02-05T10:06:39.549Z,101209.31
2023-02-05T10:09:34.795Z,101290.34
2023-02-05T10:12:13.861Z,101279.31
2023-02-05T10:15:01.872Z,101321.09
2023-02-05T10:18:14.507Z,101325.78
2023-02-05T10:20:59.653Z,101419.69
2023-02-05T10:23:35.236Z,101363.41
2023-02-05T10:26:10.304Z,101344.09
2023-02-05T10:28:45.638Z,101424.19
2023-02-05T10:31:40.305Z,101426.94
2023-02-05T10:34:23.200Z,101430.06
2023-02-05T10:36:54.074Z,101324.72
2023-02-05T10:39:24.966Z,101447.00
2023-02-05T10:41:59.228Z,101443.25
2023-02-05T10:44:37.991Z,101377.44
2023-02-05T10:47:14.358Z,101475.25
2023-02-05T10:50:03.118Z,101461.41
2023-02-05T10:52:31.294Z,101451.63
2023-02-05T10:54:57.912Z,101472.41
2023-02-05T10:57:28.846Z,101490.63
2023-02-05T11:00:02.380Z,101519.03
2023-02-05T11:02:38.078Z,101575.41
2023-02-05T11:05:15.713Z,101557.38
2023-02-05T11:07:50.937Z,101461.09
2023-02-05T11:10:29.499Z,101641.31
2023-02-05T11:13:04.164Z,101828.19
2023-02-05T11:15:32.661Z,101872.28
2023-02-05T11:18:05.719Z,101899.25
2023-02-05T11:20:39.357Z,101932.66
2023-02-05T11:23:18.227Z,102067.72
2023-02-05T11:25:50.514Z,102078.00
2023-02-05T11:28:23.122Z,102079.53
2023-02-05T11:30:58.715Z,102090.88
2023-02-05T11:33:28.816Z,102106.00
2023-02-05T11:36:07.687Z,102113.06
2023-02-05T11:38:57.596Z,102108.47
2023-02-05T11:41:39.037Z,102154.97
2023-02-05T11:44:05.586Z,102099.66
2023-02-05T11:46:37.461Z,102108.34
2023-02-05T11:49:04.930Z,102147.78
2023-02-05T11:51:40.314Z,102151.00
2023-02-05T11:54:33.051Z,102129.03
2023-02-05T11:57:03.900Z,102143.59
2023-02-05T11:59:31.396Z,102158.59
2023-02-05T12:02:27.460Z,102170.88
2023-02-05T12:05:11.934Z,102173.63
2023-02-05T12:07:48.384Z,102197.91
2023-02-05T12:10:24.828Z,102187.47
2023-02-05T12:13:06.466Z,102256.41
2023-02-05T12:15:45.437Z,102312.00
2023-02-05T12:18:30.631Z,102299.38
2023-02-05T12:21:11.279Z,102286.22
2023-02-05T12:23:58.963Z,102298.91
2023-02-05T12:26:36.428Z,102269.47
2023-02-05T12:29:20.261Z,102306.63
2023-02-05T12:32:06.856Z,102326.91
2023-02-05T12:34:33.525Z,102319.13
2023-02-05T12:37:18.150Z,102282.53
2023-02-05T12:39:53.975Z,102343.91
2023-02-05T12:42:32.544Z,102476.00
2023-02-05T12:45:17.036Z,102531.84
2023-02-05T12:48:02.296Z,102664.97
2023-02-05T12:50:44.259Z,102742.72
2023-02-05T12:53:30.919Z,102817.03
2023-02-05T12:56:26.776Z,102899.91
2023-02-05T12:59:27.038Z,102871.47
2023-02-05T13:02:04.732Z,102828.56
2023-02-05T13:04:37.960Z,102743.81
2023-02-05T13:07:14.839Z,102812.09
2023-02-05T13:09:45.355Z,102779.63
2023-02-05T13:12:16.429Z,102748.59
2023-02-05T13:15:17.710Z,102715.56
2023-02-05T13:17:55.491Z,102763.94
2023-02-05T13:20:31.026Z,102790.69
2023-02-05T13:22:58.368Z,102779.09
2023-02-05T13:25:38.119Z,102869.13
2023-02-05T13:28:20.070Z,102995.66
2023-02-05T13:30:52.861Z,103006.34
2023-02-05T13:33:19.424Z,102930.75
2023-02-05T13:36:11.457Z,102936.72
2023-02-05T13:38:58.365Z,102908.53
2023-02-05T13:41:56.532Z,102919.59
2023-02-05T13:44:36.320Z,102928.28
2023-02-05T13:47:39.990Z,102989.50
2023-02-05T13:50:33.476Z,103042.66
2023-02-05T13:53:08.626Z,103046.16
2023-02-05T13:56:09.336Z,103019.88
2023-02-05T13:58:50.477Z,102980.50
2023-02-05T14:01:27.344Z,102950.84
2023-02-05T14:04:07.882Z,102952.69
2023-02-05T14:06:39.089Z,102916.47
2023-02-05T14:09:09.893Z,102942.94
2023-02-05T14:11:45.396Z,102955.84
2023-02-05T14:14:18.267Z,102983.69
2023-02-05T14:16:44.837Z,102957.22
2023-02-05T14:19:22.232Z,102911.75
2023-02-05T14:21:58.396Z,102952.97
2023-02-05T14:24:24.893Z,102926.81
2023-02-05T14:26:55.645Z,102937.63
2023-02-05T14:29:38.319Z,102885.50
2023-02-05T14:32:05.226Z,102868.06
2023-02-05T14:34:31.641Z,102979.28
2023-02-05T14:36:59.560Z,102969.22
2023-02-05T14:39:29.637Z,103012.78
2023-02-05T14:41:56.924Z,103097.72
2023-02-05T14:44:31.652Z,103109.50
2023-02-05T14:47:21.507Z,103062.81
2023-02-05T14:49:49.634Z,103043.28
2023-02-05T14:52:46.980Z,103000.44
2023-02-05T14:55:19.848Z,102974.91
2023-02-05T14:57:54.331Z,102970.50
2023-02-05T15:00:22.820Z,102981.28
2023-02-05T15:03:28.583Z,102957.59
2023-02-05T15:06:01.112Z,102892.38
2023-02-05T15:08:52.439Z,102938.69
2023-02-05T15:11:26.174Z,102925.09
2023-02-05T15:14:23.986Z,102936.56
2023-02-05T15:17:05.796Z,102938.88
2023-02-05T15:19:37.736Z,102939.94
2023-02-05T15:22:08.328Z,102942.69
2023-02-05T15:24:36.289Z,102893.34
2023-02-05T15:27:21.969Z,102931.16
2023-02-05T15:29:53.191Z,102948.16
2023-02-05T15:32:33.361Z,102877.31
2023-02-05T15:35:06.259Z,102904.34
2023-02-05T15:37:38.141Z,102927.28
2023-02-05T15:40:19.804Z,102928.19
2023-02-05T15:42:52.034Z,102901.22
2023-02-05T15:45:30.438Z,102913.78
2023-02-05T15:48:11.265Z,102907.91
2023-02-05T15:50:54.171Z,102846.75
2023-02-05T15:53:37.478Z,102912.91
2023-02-05T15:56:12.601Z,102825.63
2023-02-05T15:58:45.808Z,102889.34
2023-02-05T16:01:36.216Z,102885.91
2023-02-05T16:04:15.792Z,102869.09
2023-02-05T16:06:42.336Z,102862.88
2023-02-05T16:09:21.216Z,102862.72
2023-02-05T16:11:48.295Z,102872.09
2023-02-05T16:14:20.741Z,102808.06
2023-02-05T16:16:57.187Z,102846.19
2023-02-05T16:19:28.936Z,102863.75
2023-02-05T16:22:01.515Z,102848.69
2023-02-05T16:24:35.025Z,102851.97
2023-02-05T16:27:15.436Z,102856.75
2023-02-05T16:29:50.076Z,102855.88
2023-02-05T16:32:35.632Z,102782.63
2023-02-05T16:35:03.953Z,102825.66
2023-02-05T16:37:32.081Z,102819.50
2023-02-05T16:40:01.947Z,102782.75
2023-02-05T16:42:44.288Z,102760.50
2023-02-05T16:45:10.759Z,102742.75
2023-02-05T16:47:38.785Z,102724.84
2023-02-05T16:50:47.522Z,102710.22
2023-02-05T16:53:20.394Z,102684.38
2023-02-05T16:55:48.085Z,102686.81
2023-02-05T16:58:21.971Z,102634.63
2023-02-05T17:00:58.143Z,102694.00
2023-02-05T17:03:28.622Z,102691.78
2023-02-05T17:06:01.585Z,102701.84
2023-02-05T17:08:37.787Z,102687.47
2023-02-05T17:11:28.450Z,102687.88
2023-02-05T17:14:29.942Z,102652.47
2023-02-05T17:17:00.671Z,102658.22
2023-02-05T17:19:32.305Z,102645.75
2023-02-05T17:22:13.977Z,102664.81
2023-02-05T17:24:42.768Z,102653.19
2023-02-05T17:27:17.331Z,102566.81
2023-02-05T17:29:45.096Z,102640.88
2023-02-05T17:32:19.614Z,102556.63
2023-02-05T17:34:47.133Z,102602.69
2023-02-05T17:37:14.385Z,102587.97
2023-02-05T17:39:41.643Z,102571.97
2023-02-05T17:42:19.171Z,102547.72
2023-02-05T17:44:46.140Z,102510.41
2023-02-05T17:47:12.993Z,102508.41
2023-02-05T17:49:39.628Z,102465.56
2023-02-05T17:52:06.373Z,102475.19
2023-02-05T17:54:32.960Z,102473.16
2023-02-05T17:57:14.874Z,102458.31
2023-02-05T17:59:44.715Z,102425.56
2023-02-05T18:02:14.741Z,102476.50
2023-02-05T18:04:42.094Z,102416.31
2023-02-05T18:07:36.586Z,102404.84
2023-02-05T18:10:03.937Z,102401.31
2023-02-05T18:12:30.620Z,102409.22
2023-02-05T18:14:57.370Z,102381.50
2023-02-05T18:17:24.505Z,102365.72
2023-02-05T18:19:51.127Z,102370.34
2023-02-05T18:22:17.565Z,102314.06
2023-02-05T18:24:46.974Z,102342.63
2023-02-05T18:27:16.321Z,102330.84
2023-02-05T18:29:44.031Z,102311.63
2023-02-05T18:32:11.130Z,102250.72
2023-02-05T18:34:37.570Z,102294.72
2023-02-05T18:37:04.068Z,102284.88
2023-02-05T18:39:30.971Z,102270.72
2023-02-05T18:41:58.110Z,102257.91
2023-02-05T18:44:25.944Z,102205.50
2023-02-05T18:46:53.342Z,102009.06
2023-02-05T18:49:20.151Z,102187.38
2023-02-05T18:51:47.052Z,102140.91
2023-02-05T18:54:16.689Z,102148.84
2023-02-05T18:56:46.461Z,102129.03
2023-02-05T18:59:19.615Z,102127.00
2023-02-05T19:01:46.666Z,102122.22
2023-02-05T19:04:15.793Z,102110.25
2023-02-05T19:06:46.952Z,102102.47
2023-02-05T19:09:17.289Z,102098.13
2023-02-05T19:11:45.246Z,102076.03
2023-02-05T19:14:14.064Z,102096.47
2023-02-05T19:16:41.202Z,102069.22
2023-02-05T19:19:08.203Z,102100.44
2023-02-05T19:21:34.998Z,102102.59
2023-02-05T19:24:04.196Z,102099.22
2023-02-05T19:26:31.995Z,102094.03
2023-02-05T19:29:00.854Z,102089.78
2023-02-05T19:31:30.092Z,102090.06
2023-02-05T19:33:57.989Z,102096.31
2023-02-05T19:36:25.748Z,102082.16
2023-02-05T19:38:53.128Z,102091.16
2023-02-05T19:41:24.794Z,102113.06
2023-02-05T19:43:56.960Z,102089.78
2023-02-05T19:46:28.972Z,102063.75
2023-02-05T19:48:59.361Z,102036.81
2023-02-05T19:51:26.201Z,102038.16
2023-02-05T19:53:56.435Z,102038.56
2023-02-05T19:56:23.525Z,101985.72
2023-02-05T19:58:52.384Z,102055.47
2023-02-05T20:01:19.070Z,102051.78
2023-02-05T20:03:46.427Z,102040.75
2023-02-05T20:06:16.742Z,101982.19
2023-02-05T20:08:45.567Z,102040.75
2023-02-05T20:11:12.844Z,102037.72
2023-02-05T20:13:41.009Z,102041.81
2023-02-05T20:16:10.939Z,102049.03
2023-02-05T20:18:38.716Z,102000.94
2023-02-05T20:21:10.990Z,101997.00
2023-02-05T20:23:37.658Z,102046.69
2023-02-05T20:26:05.281Z,102055.13
2023-02-05T20:28:33.533Z,102002.53
2023-02-05T20:31:00.203Z,102020.50
2023-02-05T20:33:26.809Z,102053.91
2023-02-05T20:35:53.253Z,102045.31
2023-02-05T20:38:23.204Z,102053.75
2023-02-05T20:40:50.138Z,102063.16
2023-02-05T20:43:17.938Z,102058.41
2023-02-05T20:45:44.568Z,102073.56
2023-02-05T20:48:11.222Z,102053.78
2023-02-05T20:50:37.828Z,102056.50
2023-02-05T20:53:04.346Z,102055.56
2023-02-05T20:55:30.963Z,102018.66
2023-02-05T20:57:57.404Z,102054.91
2023-02-05T21:00:24.324Z,102048.91
2023-02-05T21:02:51.096Z,101989.97
2023-02-05T21:05:17.582Z,102020.28
2023-02-05T21:07:49.909Z,102026.16
2023-02-05T21:10:16.921Z,102029.72
2023-02-05T21:12:46.481Z,102032.16
2023-02-05T21:15:16.118Z,102033.00
2023-02-05T21:17:43.144Z,102016.22
2023-02-05T21:20:10.140Z,102019.66
2023-02-05T21:22:36.642Z,101970.63
2023-02-05T21:25:03.385Z,102008.75
2023-02-05T21:27:30.000Z,101979.47
2023-02-05T21:29:56.748Z,101982.59
2023-02-05T21:32:23.448Z,101934.13
2023-02-05T21:34:52.350Z,101966.66
2023-02-05T21:37:21.460Z,101945.84
2023-02-05T21:39:48.335Z,101932.22
2023-02-05T21:42:16.203Z,101931.28
2023-02-05T21:44:42.753Z,101935.50
2023-02-05T21:47:09.234Z,101922.41
2023-02-05T21:49:35.737Z,101919.69
2023-02-05T21:52:02.317Z,101852.78
2023-02-05T21:54:28.776Z,101887.84
2023-02-05T21:56:55.305Z,101874.53
2023-02-05T21:59:21.798Z,101862.56
2023-02-05T22:01:52.194Z,101826.94
2023-02-05T22:04:18.977Z,101802.00
2023-02-05T22:06:45.531Z,101740.28
2023-02-05T22:09:15.657Z,101754.13
2023-02-05T22:11:45.935Z,101719.19
2023-02-05T22:14:12.824Z,101630.59
2023-02-05T22:16:39.678Z,101671.31
2023-02-05T22:19:08.912Z,101650.28
2023-02-05T22:21:41.234Z,101632.19
2023-02-05T22:24:11.147Z,101595.75
2023-02-05T22:26:39.000Z,101555.44
2023-02-05T22:29:07.949Z,101515.28
2023-02-05T22:31:35.223Z,101571.81
2023-02-05T22:34:01.940Z,101546.19
2023-02-05T22:36:31.029Z,101534.22
2023-02-05T22:38:57.921Z,101528.00
2023-02-05T22:41:29.962Z,101496.19
2023-02-05T22:43:58.340Z,101473.47
2023-02-05T22:46:27.468Z,101431.78
2023-02-05T22:48:55.273Z,101415.09
2023-02-05T22:51:27.650Z,101395.63
2023-02-05T22:53:55.220Z,101359.19
2023-02-05T22:56:22.145Z,101338.03
2023-02-05T22:58:49.811Z,101326.03
2023-02-05T23:01:21.301Z,101337.59
2023-02-05T23:03:49.718Z,101318.03
2023-02-05T23:06:22.680Z,101342.53
2023-02-05T23:08:53.944Z,101314.63
2023-02-05T23:11:28.975Z,101200.84
2023-02-05T23:13:59.371Z,101257.59
2023-02-05T23:16:31.183Z,101261.75
2023-02-05T23:19:03.217Z,101200.38
2023-02-05T23:21:32.896Z,101249.13
2023-02-05T23:23:59.664Z,101227.00
2023-02-05T23:26:30.267Z,101209.09
2023-02-05T23:28:57.441Z,101229.56
2023-02-05T23:31:25.537Z,101203.00
2023-02-05T23:33:53.232Z,101168.00
2023-02-05T23:36:23.687Z,101211.00
2023-02-05T23:38:50.738Z,101196.31
2023-02-05T23:41:17.389Z,101188.25
2023-02-05T23:43:45.179Z,101174.00
2023-02-05T23:46:11.764Z,101167.91
2023-02-05T23:48:43.649Z,101138.91
2023-02-05T23:51:11.337Z,101110.22
2023-02-05T23:53:38.508Z,101146.31
2023-02-05T23:56:05.150Z,101099.69
2023-02-05T23:58:34.456Z,101099.41
